sensor_id;sensor_type;location;lat;lon;timestamp;P1;durP1;ratioP1;P2;durP2;ratioP2
26253;SDS011;53339;51.378;0.094;2022-12-22T00:02:38;12.27;;;6.68;;
26253;SDS011;53339;51.378;0.094;2022-12-22T00:05:25;16.20;;;7.18;;
26253;SDS011;53339;51.378;0.094;2022-12-22T00:08:11;16.70;;;6.55;;
26253;SDS011;53339;51.378;0.094;2022-12-22T00:10:57;14.68;;;8.05;;
26253;SDS011;53339;51.378;0.094;2022-12-22T00:13:45;15.18;;;6.47;;
26253;SDS011;53339;51.378;0.094;2022-12-22T00:16:35;14.48;;;6.50;;
26253;SDS011;53339;51.378;0.094;2022-12-22T00:19:22;11.52;;;5.63;;
26253;SDS011;53339;51.378;0.094;2022-12-22T00:22:21;13.10;;;6.55;;
26253;SDS011;53339;51.378;0.094;2022-12-22T00:25:13;15.45;;;6.93;;
26253;SDS011;53339;51.378;0.094;2022-12-22T00:28:01;19.02;;;6.07;;
26253;SDS011;53339;51.378;0.094;2022-12-22T00:30:55;13.02;;;6.43;;
26253;SDS011;53339;51.378;0.094;2022-12-22T00:33:41;16.27;;;7.88;;
26253;SDS011;53339;51.378;0.094;2022-12-22T00:36:27;18.95;;;8.07;;
26253;SDS011;53339;51.378;0.094;2022-12-22T00:39:13;12.23;;;5.93;;
26253;SDS011;53339;51.378;0.094;2022-12-22T00:41:59;11.75;;;5.45;;
26253;SDS011;53339;51.378;0.094;2022-12-22T00:44:45;17.08;;;8.82;;
26253;SDS011;53339;51.378;0.094;2022-12-22T00:47:31;19.27;;;7.68;;
26253;SDS011;53339;51.378;0.094;2022-12-22T00:50:17;17.58;;;7.63;;
26253;SDS011;53339;51.378;0.094;2022-12-22T00:53:03;19.33;;;7.55;;
26253;SDS011;53339;51.378;0.094;2022-12-22T00:55:49;20.40;;;8.70;;
26253;SDS011;53339;51.378;0.094;2022-12-22T00:58:36;16.00;;;7.05;;
26253;SDS011;53339;51.378;0.094;2022-12-22T01:01:22;16.23;;;7.93;;
26253;SDS011;53339;51.378;0.094;2022-12-22T01:04:08;19.77;;;8.45;;
26253;SDS011;53339;51.378;0.094;2022-12-22T01:06:55;14.38;;;6.90;;
26253;SDS011;53339;51.378;0.094;2022-12-22T01:09:43;13.20;;;6.05;;
26253;SDS011;53339;51.378;0.094;2022-12-22T01:12:33;14.15;;;6.13;;
26253;SDS011;53339;51.378;0.094;2022-12-22T01:15:21;23.05;;;8.18;;
26253;SDS011;53339;51.378;0.094;2022-12-22T01:18:08;9.30;;;4.40;;
26253;SDS011;53339;51.378;0.094;2022-12-22T01:20:54;16.83;;;8.18;;
26253;SDS011;53339;51.378;0.094;2022-12-22T01:23:40;19.55;;;9.18;;
26253;SDS011;53339;51.378;0.094;2022-12-22T01:26:27;21.48;;;9.13;;
26253;SDS011;53339;51.378;0.094;2022-12-22T01:29:13;20.65;;;7.60;;
26253;SDS011;53339;51.378;0.094;2022-12-22T01:32:00;17.35;;;6.43;;
26253;SDS011;53339;51.378;0.094;2022-12-22T01:34:46;19.35;;;7.80;;
26253;SDS011;53339;51.378;0.094;2022-12-22T01:37:31;16.98;;;7.03;;
26253;SDS011;53339;51.378;0.094;2022-12-22T01:40:19;17.40;;;7.10;;
26253;SDS011;53339;51.378;0.094;2022-12-22T01:43:21;17.85;;;7.53;;
26253;SDS011;53339;51.378;0.094;2022-12-22T01:46:21;17.40;;;7.40;;
26253;SDS011;53339;51.378;0.094;2022-12-22T01:49:21;20.13;;;8.32;;
26253;SDS011;53339;51.378;0.094;2022-12-22T01:52:11;19.35;;;7.68;;
26253;SDS011;53339;51.378;0.094;2022-12-22T01:55:02;23.75;;;8.48;;
26253;SDS011;53339;51.378;0.094;2022-12-22T01:57:57;17.33;;;7.20;;
26253;SDS011;53339;51.378;0.094;2022-12-22T02:00:43;18.00;;;7.28;;
26253;SDS011;53339;51.378;0.094;2022-12-22T02:03:31;18.60;;;7.93;;
26253;SDS011;53339;51.378;0.094;2022-12-22T02:15:56;24.17;;;10.57;;
26253;SDS011;53339;51.378;0.094;2022-12-22T02:19:01;25.15;;;7.70;;
26253;SDS011;53339;51.378;0.094;2022-12-22T02:24:52;25.25;;;10.10;;
26253;SDS011;53339;51.378;0.094;2022-12-22T02:27:47;25.48;;;9.60;;
26253;SDS011;53339;51.378;0.094;2022-12-22T02:30:35;24.45;;;8.70;;
26253;SDS011;53339;51.378;0.094;2022-12-22T02:33:22;23.58;;;9.45;;
26253;SDS011;53339;51.378;0.094;2022-12-22T02:36:15;24.42;;;8.90;;
26253;SDS011;53339;51.378;0.094;2022-12-22T02:42:15;21.38;;;8.82;;
26253;SDS011;53339;51.378;0.094;2022-12-22T02:45:39;27.58;;;10.98;;
26253;SDS011;53339;51.378;0.094;2022-12-22T02:48:31;17.08;;;8.02;;
26253;SDS011;53339;51.378;0.094;2022-12-22T02:51:26;14.13;;;6.07;;
26253;SDS011;53339;51.378;0.094;2022-12-22T02:54:13;26.00;;;9.73;;
26253;SDS011;53339;51.378;0.094;2022-12-22T02:57:05;20.42;;;8.35;;
26253;SDS011;53339;51.378;0.094;2022-12-22T03:02:37;14.80;;;6.50;;
26253;SDS011;53339;51.378;0.094;2022-12-22T03:05:23;21.00;;;8.23;;
26253;SDS011;53339;51.378;0.094;2022-12-22T03:08:09;17.15;;;6.82;;
26253;SDS011;53339;51.378;0.094;2022-12-22T03:10:55;17.25;;;6.47;;
26253;SDS011;53339;51.378;0.094;2022-12-22T03:13:41;22.25;;;10.32;;
26253;SDS011;53339;51.378;0.094;2022-12-22T03:16:27;20.30;;;8.25;;
26253;SDS011;53339;51.378;0.094;2022-12-22T03:19:14;20.00;;;6.93;;
26253;SDS011;53339;51.378;0.094;2022-12-22T03:22:00;13.65;;;3.88;;
26253;SDS011;53339;51.378;0.094;2022-12-22T03:24:46;20.60;;;7.53;;
26253;SDS011;53339;51.378;0.094;2022-12-22T03:27:32;13.30;;;5.55;;
26253;SDS011;53339;51.378;0.094;2022-12-22T03:29:59;9.88;;;4.97;;
26253;SDS011;53339;51.378;0.094;2022-12-22T03:32:27;12.13;;;5.80;;
26253;SDS011;53339;51.378;0.094;2022-12-22T03:34:54;13.45;;;4.63;;
26253;SDS011;53339;51.378;0.094;2022-12-22T03:37:22;17.75;;;5.82;;
26253;SDS011;53339;51.378;0.094;2022-12-22T03:39:49;19.65;;;7.07;;
26253;SDS011;53339;51.378;0.094;2022-12-22T03:42:16;10.07;;;4.30;;
26253;SDS011;53339;51.378;0.094;2022-12-22T03:45:02;10.73;;;4.25;;
26253;SDS011;53339;51.378;0.094;2022-12-22T03:47:49;12.98;;;6.03;;
26253;SDS011;53339;51.378;0.094;2022-12-22T03:50:16;14.68;;;5.13;;
26253;SDS011;53339;51.378;0.094;2022-12-22T03:52:44;12.40;;;4.10;;
26253;SDS011;53339;51.378;0.094;2022-12-22T03:55:11;12.32;;;4.88;;
26253;SDS011;53339;51.378;0.094;2022-12-22T03:57:39;15.35;;;6.10;;
26253;SDS011;53339;51.378;0.094;2022-12-22T04:00:06;11.43;;;4.53;;
26253;SDS011;53339;51.378;0.094;2022-12-22T04:02:37;14.80;;;5.60;;
26253;SDS011;53339;51.378;0.094;2022-12-22T04:05:05;14.73;;;5.28;;
26253;SDS011;53339;51.378;0.094;2022-12-22T04:07:33;15.95;;;7.15;;
26253;SDS011;53339;51.378;0.094;2022-12-22T04:10:01;17.15;;;6.40;;
26253;SDS011;53339;51.378;0.094;2022-12-22T04:12:50;13.07;;;5.28;;
26253;SDS011;53339;51.378;0.094;2022-12-22T04:15:21;14.85;;;6.57;;
26253;SDS011;53339;51.378;0.094;2022-12-22T04:17:53;15.02;;;5.55;;
26253;SDS011;53339;51.378;0.094;2022-12-22T04:20:22;14.02;;;6.80;;
26253;SDS011;53339;51.378;0.094;2022-12-22T04:22:53;14.65;;;4.78;;
26253;SDS011;53339;51.378;0.094;2022-12-22T04:25:21;12.77;;;4.88;;
26253;SDS011;53339;51.378;0.094;2022-12-22T04:27:49;9.50;;;4.53;;
26253;SDS011;53339;51.378;0.094;2022-12-22T04:30:17;13.52;;;4.80;;
26253;SDS011;53339;51.378;0.094;2022-12-22T04:32:44;21.60;;;7.28;;
26253;SDS011;53339;51.378;0.094;2022-12-22T04:35:12;16.65;;;5.68;;
26253;SDS011;53339;51.378;0.094;2022-12-22T04:37:39;28.35;;;6.93;;
26253;SDS011;53339;51.378;0.094;2022-12-22T04:40:07;23.13;;;6.57;;
26253;SDS011;53339;51.378;0.094;2022-12-22T04:42:34;17.25;;;6.28;;
26253;SDS011;53339;51.378;0.094;2022-12-22T04:45:02;19.52;;;5.78;;
26253;SDS011;53339;51.378;0.094;2022-12-22T04:47:30;20.27;;;5.97;;
26253;SDS011;53339;51.378;0.094;2022-12-22T04:49:57;13.48;;;4.63;;
26253;SDS011;53339;51.378;0.094;2022-12-22T04:52:25;10.88;;;4.95;;
26253;SDS011;53339;51.378;0.094;2022-12-22T04:54:53;18.58;;;5.65;;
26253;SDS011;53339;51.378;0.094;2022-12-22T04:57:20;19.58;;;5.95;;
26253;SDS011;53339;51.378;0.094;2022-12-22T04:59:48;20.17;;;6.60;;
26253;SDS011;53339;51.378;0.094;2022-12-22T05:02:15;13.07;;;4.63;;
26253;SDS011;53339;51.378;0.094;2022-12-22T05:04:43;17.58;;;5.22;;
26253;SDS011;53339;51.378;0.094;2022-12-22T05:07:11;17.83;;;4.95;;
26253;SDS011;53339;51.378;0.094;2022-12-22T05:09:39;13.07;;;3.90;;
26253;SDS011;53339;51.378;0.094;2022-12-22T05:12:06;14.98;;;4.90;;
26253;SDS011;53339;51.378;0.094;2022-12-22T05:14:53;15.73;;;5.07;;
26253;SDS011;53339;51.378;0.094;2022-12-22T05:17:20;11.77;;;4.78;;
26253;SDS011;53339;51.378;0.094;2022-12-22T05:19:48;18.65;;;4.20;;
26253;SDS011;53339;51.378;0.094;2022-12-22T05:22:15;13.82;;;4.63;;
26253;SDS011;53339;51.378;0.094;2022-12-22T05:24:44;21.77;;;4.97;;
26253;SDS011;53339;51.378;0.094;2022-12-22T05:27:11;15.32;;;5.20;;
26253;SDS011;53339;51.378;0.094;2022-12-22T05:29:39;16.52;;;5.28;;
26253;SDS011;53339;51.378;0.094;2022-12-22T05:32:06;11.07;;;4.60;;
26253;SDS011;53339;51.378;0.094;2022-12-22T05:34:34;17.23;;;5.55;;
26253;SDS011;53339;51.378;0.094;2022-12-22T05:37:01;19.70;;;4.85;;
26253;SDS011;53339;51.378;0.094;2022-12-22T05:39:29;19.85;;;5.00;;
26253;SDS011;53339;51.378;0.094;2022-12-22T05:41:56;11.15;;;4.65;;
26253;SDS011;53339;51.378;0.094;2022-12-22T05:44:24;14.27;;;5.03;;
26253;SDS011;53339;51.378;0.094;2022-12-22T05:46:51;18.73;;;5.75;;
26253;SDS011;53339;51.378;0.094;2022-12-22T05:49:19;13.80;;;4.75;;
26253;SDS011;53339;51.378;0.094;2022-12-22T05:51:46;10.40;;;4.93;;
26253;SDS011;53339;51.378;0.094;2022-12-22T05:54:14;21.55;;;5.55;;
26253;SDS011;53339;51.378;0.094;2022-12-22T05:56:42;19.98;;;5.95;;
26253;SDS011;53339;51.378;0.094;2022-12-22T05:59:10;8.98;;;3.47;;
26253;SDS011;53339;51.378;0.094;2022-12-22T06:01:38;10.07;;;3.60;;
26253;SDS011;53339;51.378;0.094;2022-12-22T06:04:05;17.05;;;5.13;;
26253;SDS011;53339;51.378;0.094;2022-12-22T06:06:33;14.93;;;5.25;;
26253;SDS011;53339;51.378;0.094;2022-12-22T06:09:00;13.85;;;4.30;;
26253;SDS011;53339;51.378;0.094;2022-12-22T06:11:28;10.98;;;3.45;;
26253;SDS011;53339;51.378;0.094;2022-12-22T06:13:55;17.60;;;5.13;;
26253;SDS011;53339;51.378;0.094;2022-12-22T06:16:26;14.27;;;5.32;;
26253;SDS011;53339;51.378;0.094;2022-12-22T06:18:53;10.65;;;3.05;;
26253;SDS011;53339;51.378;0.094;2022-12-22T06:21:21;10.98;;;3.78;;
26253;SDS011;53339;51.378;0.094;2022-12-22T06:23:48;13.93;;;5.13;;
26253;SDS011;53339;51.378;0.094;2022-12-22T06:26:15;13.48;;;5.10;;
26253;SDS011;53339;51.378;0.094;2022-12-22T06:28:43;9.80;;;3.83;;
26253;SDS011;53339;51.378;0.094;2022-12-22T06:31:10;10.38;;;4.60;;
26253;SDS011;53339;51.378;0.094;2022-12-22T06:33:38;10.40;;;4.60;;
26253;SDS011;53339;51.378;0.094;2022-12-22T06:36:06;8.52;;;4.05;;
26253;SDS011;53339;51.378;0.094;2022-12-22T06:38:34;7.53;;;3.22;;
26253;SDS011;53339;51.378;0.094;2022-12-22T06:41:01;7.10;;;2.75;;
26253;SDS011;53339;51.378;0.094;2022-12-22T06:43:30;8.75;;;2.80;;
26253;SDS011;53339;51.378;0.094;2022-12-22T06:45:57;10.00;;;4.05;;
26253;SDS011;53339;51.378;0.094;2022-12-22T06:48:25;8.13;;;4.07;;
26253;SDS011;53339;51.378;0.094;2022-12-22T06:50:56;11.23;;;3.30;;
26253;SDS011;53339;51.378;0.094;2022-12-22T06:53:25;5.65;;;2.15;;
26253;SDS011;53339;51.378;0.094;2022-12-22T06:55:53;7.78;;;3.17;;
26253;SDS011;53339;51.378;0.094;2022-12-22T06:58:20;5.53;;;2.63;;
26253;SDS011;53339;51.378;0.094;2022-12-22T07:00:47;5.20;;;2.38;;
26253;SDS011;53339;51.378;0.094;2022-12-22T07:03:17;7.82;;;2.67;;
26253;SDS011;53339;51.378;0.094;2022-12-22T07:05:44;7.15;;;3.33;;
26253;SDS011;53339;51.378;0.094;2022-12-22T07:08:12;7.45;;;2.08;;
26253;SDS011;53339;51.378;0.094;2022-12-22T07:10:39;6.72;;;3.08;;
26253;SDS011;53339;51.378;0.094;2022-12-22T07:13:30;5.78;;;2.78;;
26253;SDS011;53339;51.378;0.094;2022-12-22T07:16:04;13.38;;;3.88;;
26253;SDS011;53339;51.378;0.094;2022-12-22T07:18:34;5.78;;;2.88;;
26253;SDS011;53339;51.378;0.094;2022-12-22T07:21:04;6.07;;;2.35;;
26253;SDS011;53339;51.378;0.094;2022-12-22T07:23:33;8.30;;;3.13;;
26253;SDS011;53339;51.378;0.094;2022-12-22T07:26:01;8.13;;;3.72;;
26253;SDS011;53339;51.378;0.094;2022-12-22T07:28:37;9.40;;;3.25;;
26253;SDS011;53339;51.378;0.094;2022-12-22T07:31:06;8.00;;;3.17;;
26253;SDS011;53339;51.378;0.094;2022-12-22T07:33:35;7.90;;;2.75;;
26253;SDS011;53339;51.378;0.094;2022-12-22T07:36:10;11.70;;;3.58;;
26253;SDS011;53339;51.378;0.094;2022-12-22T07:38:39;10.60;;;3.60;;
26253;SDS011;53339;51.378;0.094;2022-12-22T07:41:09;9.43;;;3.80;;
26253;SDS011;53339;51.378;0.094;2022-12-22T07:43:59;8.15;;;3.75;;
26253;SDS011;53339;51.378;0.094;2022-12-22T07:46:28;8.40;;;3.92;;
26253;SDS011;53339;51.378;0.094;2022-12-22T07:48:57;12.50;;;4.40;;
26253;SDS011;53339;51.378;0.094;2022-12-22T07:51:43;7.80;;;3.50;;
26253;SDS011;53339;51.378;0.094;2022-12-22T07:54:12;18.10;;;3.38;;
26253;SDS011;53339;51.378;0.094;2022-12-22T07:56:41;12.00;;;3.67;;
26253;SDS011;53339;51.378;0.094;2022-12-22T07:59:10;14.82;;;3.63;;
26253;SDS011;53339;51.378;0.094;2022-12-22T08:01:38;13.95;;;4.30;;
26253;SDS011;53339;51.378;0.094;2022-12-22T08:04:07;7.82;;;3.67;;
26253;SDS011;53339;51.378;0.094;2022-12-22T08:06:36;17.88;;;4.07;;
26253;SDS011;53339;51.378;0.094;2022-12-22T08:09:04;8.98;;;4.03;;
26253;SDS011;53339;51.378;0.094;2022-12-22T08:11:33;13.25;;;4.10;;
26253;SDS011;53339;51.378;0.094;2022-12-22T08:14:01;11.85;;;3.45;;
26253;SDS011;53339;51.378;0.094;2022-12-22T08:16:28;15.07;;;3.67;;
26253;SDS011;53339;51.378;0.094;2022-12-22T08:18:56;12.55;;;3.00;;
26253;SDS011;53339;51.378;0.094;2022-12-22T08:21:24;12.57;;;4.03;;
26253;SDS011;53339;51.378;0.094;2022-12-22T08:23:51;14.07;;;5.25;;
26253;SDS011;53339;51.378;0.094;2022-12-22T08:26:34;16.00;;;4.07;;
26253;SDS011;53339;51.378;0.094;2022-12-22T08:29:12;14.05;;;5.85;;
26253;SDS011;53339;51.378;0.094;2022-12-22T08:31:44;12.43;;;4.85;;
26253;SDS011;53339;51.378;0.094;2022-12-22T08:34:12;18.10;;;5.75;;
26253;SDS011;53339;51.378;0.094;2022-12-22T08:36:42;12.90;;;4.68;;
26253;SDS011;53339;51.378;0.094;2022-12-22T08:39:16;10.60;;;4.55;;
26253;SDS011;53339;51.378;0.094;2022-12-22T08:41:46;12.88;;;3.97;;
26253;SDS011;53339;51.378;0.094;2022-12-22T08:46:44;14.65;;;4.55;;
26253;SDS011;53339;51.378;0.094;2022-12-22T08:49:12;11.02;;;4.50;;
26253;SDS011;53339;51.378;0.094;2022-12-22T08:51:39;15.73;;;5.95;;
26253;SDS011;53339;51.378;0.094;2022-12-22T08:54:07;17.98;;;6.45;;
26253;SDS011;53339;51.378;0.094;2022-12-22T08:56:35;16.00;;;5.60;;
26253;SDS011;53339;51.378;0.094;2022-12-22T08:59:03;15.30;;;7.20;;
26253;SDS011;53339;51.378;0.094;2022-12-22T09:04:03;11.05;;;4.35;;
26253;SDS011;53339;51.378;0.094;2022-12-22T09:06:31;11.25;;;4.65;;
26253;SDS011;53339;51.378;0.094;2022-12-22T09:09:07;15.45;;;5.93;;
26253;SDS011;53339;51.378;0.094;2022-12-22T09:11:36;12.95;;;5.05;;
26253;SDS011;53339;51.378;0.094;2022-12-22T09:14:04;11.73;;;6.15;;
26253;SDS011;53339;51.378;0.094;2022-12-22T09:16:33;12.23;;;5.72;;
26253;SDS011;53339;51.378;0.094;2022-12-22T09:19:01;9.77;;;3.92;;
26253;SDS011;53339;51.378;0.094;2022-12-22T09:21:29;9.52;;;4.50;;
26253;SDS011;53339;51.378;0.094;2022-12-22T09:23:57;12.45;;;5.72;;
26253;SDS011;53339;51.378;0.094;2022-12-22T09:26:26;16.05;;;6.72;;
26253;SDS011;53339;51.378;0.094;2022-12-22T09:28:54;19.58;;;5.68;;
26253;SDS011;53339;51.378;0.094;2022-12-22T09:31:23;16.58;;;6.55;;
26253;SDS011;53339;51.378;0.094;2022-12-22T09:33:52;12.82;;;5.03;;
26253;SDS011;53339;51.378;0.094;2022-12-22T09:36:23;12.27;;;4.95;;
26253;SDS011;53339;51.378;0.094;2022-12-22T09:38:52;14.05;;;4.82;;
26253;SDS011;53339;51.378;0.094;2022-12-22T09:43:47;12.95;;;5.85;;
26253;SDS011;53339;51.378;0.094;2022-12-22T09:46:22;12.60;;;5.20;;
26253;SDS011;53339;51.378;0.094;2022-12-22T09:48:53;8.40;;;4.30;;
26253;SDS011;53339;51.378;0.094;2022-12-22T09:51:21;12.32;;;5.78;;
26253;SDS011;53339;51.378;0.094;2022-12-22T09:53:54;12.43;;;4.82;;
26253;SDS011;53339;51.378;0.094;2022-12-22T09:56:25;9.25;;;4.30;;
26253;SDS011;53339;51.378;0.094;2022-12-22T09:58:54;12.10;;;5.03;;
26253;SDS011;53339;51.378;0.094;2022-12-22T10:12:05;8.88;;;3.58;;
26253;SDS011;53339;51.378;0.094;2022-12-22T10:14:40;9.55;;;4.13;;
26253;SDS011;53339;51.378;0.094;2022-12-22T10:19:49;8.90;;;3.97;;
26253;SDS011;53339;51.378;0.094;2022-12-22T10:24:56;8.68;;;3.42;;
26253;SDS011;53339;51.378;0.094;2022-12-22T10:27:28;8.35;;;3.30;;
26253;SDS011;53339;51.378;0.094;2022-12-22T10:33:10;11.43;;;4.63;;
26253;SDS011;53339;51.378;0.094;2022-12-22T10:41:14;15.13;;;5.20;;
26253;SDS011;53339;51.378;0.094;2022-12-22T10:43:51;11.45;;;4.65;;
26253;SDS011;53339;51.378;0.094;2022-12-22T10:51:46;18.33;;;4.70;;
26253;SDS011;53339;51.378;0.094;2022-12-22T10:54:23;18.60;;;4.72;;
26253;SDS011;53339;51.378;0.094;2022-12-22T10:56:59;6.93;;;2.85;;
26253;SDS011;53339;51.378;0.094;2022-12-22T10:59:29;19.20;;;4.80;;
26253;SDS011;53339;51.378;0.094;2022-12-22T11:04:47;19.33;;;4.45;;
26253;SDS011;53339;51.378;0.094;2022-12-22T11:07:15;15.88;;;3.83;;
26253;SDS011;53339;51.378;0.094;2022-12-22T11:09:43;22.17;;;4.63;;
26253;SDS011;53339;51.378;0.094;2022-12-22T11:12:21;23.05;;;4.30;;
26253;SDS011;53339;51.378;0.094;2022-12-22T11:17:44;28.10;;;4.38;;
26253;SDS011;53339;51.378;0.094;2022-12-22T11:29:15;12.60;;;4.07;;
26253;SDS011;53339;51.378;0.094;2022-12-22T11:46:53;10.98;;;2.92;;
26253;SDS011;53339;51.378;0.094;2022-12-22T11:57:58;12.55;;;3.08;;
26253;SDS011;53339;51.378;0.094;2022-12-22T12:00:57;15.48;;;2.85;;
26253;SDS011;53339;51.378;0.094;2022-12-22T12:03:58;13.98;;;3.22;;
26253;SDS011;53339;51.378;0.094;2022-12-22T12:12:16;9.27;;;3.05;;
26253;SDS011;53339;51.378;0.094;2022-12-22T12:15:08;12.73;;;2.80;;
26253;SDS011;53339;51.378;0.094;2022-12-22T12:20:45;9.80;;;3.08;;
26253;SDS011;53339;51.378;0.094;2022-12-22T12:23:34;8.75;;;2.63;;
26253;SDS011;53339;51.378;0.094;2022-12-22T12:29:01;8.80;;;2.40;;
26253;SDS011;53339;51.378;0.094;2022-12-22T12:34:17;18.33;;;3.55;;
26253;SDS011;53339;51.378;0.094;2022-12-22T12:36:57;14.88;;;3.72;;
26253;SDS011;53339;51.378;0.094;2022-12-22T12:42:33;20.02;;;3.38;;
26253;SDS011;53339;51.378;0.094;2022-12-22T12:45:30;11.25;;;3.65;;
26253;SDS011;53339;51.378;0.094;2022-12-22T12:53:16;8.57;;;3.72;;
26253;SDS011;53339;51.378;0.094;2022-12-22T13:01:07;13.00;;;4.07;;
26253;SDS011;53339;51.378;0.094;2022-12-22T13:03:59;14.02;;;3.92;;
26253;SDS011;53339;51.378;0.094;2022-12-22T13:09:18;11.43;;;2.78;;
26253;SDS011;53339;51.378;0.094;2022-12-22T13:15:25;9.88;;;3.47;;
26253;SDS011;53339;51.378;0.094;2022-12-22T13:17:53;10.88;;;3.17;;
26253;SDS011;53339;51.378;0.094;2022-12-22T13:20:30;8.52;;;2.83;;
26253;SDS011;53339;51.378;0.094;2022-12-22T13:23:03;17.38;;;3.45;;
26253;SDS011;53339;51.378;0.094;2022-12-22T13:25:42;19.55;;;4.07;;
26253;SDS011;53339;51.378;0.094;2022-12-22T13:28:25;14.40;;;2.97;;
26253;SDS011;53339;51.378;0.094;2022-12-22T13:30:58;12.55;;;3.58;;
26253;SDS011;53339;51.378;0.094;2022-12-22T13:33:30;9.60;;;2.95;;
26253;SDS011;53339;51.378;0.094;2022-12-22T13:36:02;13.07;;;2.50;;
26253;SDS011;53339;51.378;0.094;2022-12-22T13:38:33;15.55;;;3.22;;
26253;SDS011;53339;51.378;0.094;2022-12-22T13:41:03;13.45;;;3.15;;
26253;SDS011;53339;51.378;0.094;2022-12-22T13:43:43;13.38;;;2.90;;
26253;SDS011;53339;51.378;0.094;2022-12-22T13:46:16;12.07;;;4.15;;
26253;SDS011;53339;51.378;0.094;2022-12-22T13:48:45;10.90;;;3.78;;
26253;SDS011;53339;51.378;0.094;2022-12-22T13:53:50;9.65;;;3.67;;
26253;SDS011;53339;51.378;0.094;2022-12-22T13:59:27;14.25;;;2.97;;
26253;SDS011;53339;51.378;0.094;2022-12-22T14:02:12;10.23;;;2.33;;
26253;SDS011;53339;51.378;0.094;2022-12-22T14:04:42;10.65;;;2.35;;
26253;SDS011;53339;51.378;0.094;2022-12-22T14:07:29;12.23;;;3.55;;
26253;SDS011;53339;51.378;0.094;2022-12-22T14:09:57;15.77;;;2.50;;
26253;SDS011;53339;51.378;0.094;2022-12-22T14:12:26;6.03;;;1.90;;
26253;SDS011;53339;51.378;0.094;2022-12-22T14:14:57;13.95;;;4.22;;
26253;SDS011;53339;51.378;0.094;2022-12-22T14:19:58;15.25;;;3.22;;
26253;SDS011;53339;51.378;0.094;2022-12-22T14:22:33;11.15;;;2.55;;
26253;SDS011;53339;51.378;0.094;2022-12-22T14:25:22;12.38;;;4.25;;
26253;SDS011;53339;51.378;0.094;2022-12-22T14:27:55;14.30;;;3.95;;
26253;SDS011;53339;51.378;0.094;2022-12-22T14:30:25;13.48;;;4.75;;
26253;SDS011;53339;51.378;0.094;2022-12-22T14:35:49;11.80;;;4.20;;
26253;SDS011;53339;51.378;0.094;2022-12-22T14:38:21;11.95;;;3.42;;
26253;SDS011;53339;51.378;0.094;2022-12-22T14:40:51;13.35;;;3.67;;
26253;SDS011;53339;51.378;0.094;2022-12-22T14:43:29;11.48;;;3.28;;
26253;SDS011;53339;51.378;0.094;2022-12-22T14:46:05;14.45;;;4.57;;
26253;SDS011;53339;51.378;0.094;2022-12-22T14:48:39;12.10;;;4.90;;
26253;SDS011;53339;51.378;0.094;2022-12-22T14:51:16;12.20;;;3.35;;
26253;SDS011;53339;51.378;0.094;2022-12-22T14:53:46;16.67;;;3.50;;
26253;SDS011;53339;51.378;0.094;2022-12-22T14:56:17;14.13;;;3.47;;
26253;SDS011;53339;51.378;0.094;2022-12-22T14:58:47;9.05;;;3.35;;
26253;SDS011;53339;51.378;0.094;2022-12-22T15:01:23;12.32;;;3.80;;
26253;SDS011;53339;51.378;0.094;2022-12-22T15:04:17;16.60;;;4.65;;
26253;SDS011;53339;51.378;0.094;2022-12-22T15:06:44;11.77;;;2.50;;
26253;SDS011;53339;51.378;0.094;2022-12-22T15:11:48;8.13;;;2.58;;
26253;SDS011;53339;51.378;0.094;2022-12-22T15:14:25;11.55;;;2.67;;
26253;SDS011;53339;51.378;0.094;2022-12-22T15:17:00;9.20;;;2.67;;
26253;SDS011;53339;51.378;0.094;2022-12-22T15:19:29;10.88;;;3.53;;
26253;SDS011;53339;51.378;0.094;2022-12-22T15:21:59;11.35;;;4.05;;
26253;SDS011;53339;51.378;0.094;2022-12-22T15:24:26;11.15;;;3.30;;
26253;SDS011;53339;51.378;0.094;2022-12-22T15:26:55;9.73;;;2.83;;
26253;SDS011;53339;51.378;0.094;2022-12-22T15:29:22;10.63;;;2.85;;
26253;SDS011;53339;51.378;0.094;2022-12-22T15:31:50;7.00;;;2.85;;
26253;SDS011;53339;51.378;0.094;2022-12-22T15:34:21;11.82;;;4.10;;
26253;SDS011;53339;51.378;0.094;2022-12-22T15:36:50;11.05;;;2.50;;
26253;SDS011;53339;51.378;0.094;2022-12-22T15:39:18;8.70;;;2.72;;
26253;SDS011;53339;51.378;0.094;2022-12-22T15:41:47;11.75;;;3.00;;
26253;SDS011;53339;51.378;0.094;2022-12-22T15:44:15;11.23;;;3.45;;
26253;SDS011;53339;51.378;0.094;2022-12-22T15:46:43;13.43;;;3.75;;
26253;SDS011;53339;51.378;0.094;2022-12-22T15:49:16;15.13;;;3.30;;
26253;SDS011;53339;51.378;0.094;2022-12-22T15:51:47;13.85;;;3.67;;
26253;SDS011;53339;51.378;0.094;2022-12-22T15:54:17;15.85;;;3.22;;
26253;SDS011;53339;51.378;0.094;2022-12-22T15:56:45;11.77;;;2.55;;
26253;SDS011;53339;51.378;0.094;2022-12-22T15:59:15;21.50;;;3.70;;
26253;SDS011;53339;51.378;0.094;2022-12-22T16:01:49;22.20;;;2.88;;
26253;SDS011;53339;51.378;0.094;2022-12-22T16:04:22;14.85;;;3.03;;
26253;SDS011;53339;51.378;0.094;2022-12-22T16:06:51;19.98;;;4.15;;
26253;SDS011;53339;51.378;0.094;2022-12-22T16:09:20;15.27;;;3.42;;
26253;SDS011;53339;51.378;0.094;2022-12-22T16:11:51;14.45;;;3.28;;
26253;SDS011;53339;51.378;0.094;2022-12-22T16:14:18;14.57;;;2.67;;
26253;SDS011;53339;51.378;0.094;2022-12-22T16:16:48;19.73;;;3.13;;
26253;SDS011;53339;51.378;0.094;2022-12-22T16:19:16;16.63;;;4.10;;
26253;SDS011;53339;51.378;0.094;2022-12-22T16:21:45;20.15;;;4.22;;
26253;SDS011;53339;51.378;0.094;2022-12-22T16:24:23;18.38;;;3.90;;
26253;SDS011;53339;51.378;0.094;2022-12-22T16:26:55;30.27;;;6.25;;
26253;SDS011;53339;51.378;0.094;2022-12-22T16:29:23;16.15;;;3.33;;
26253;SDS011;53339;51.378;0.094;2022-12-22T16:31:52;19.95;;;4.63;;
26253;SDS011;53339;51.378;0.094;2022-12-22T16:34:21;25.98;;;4.30;;
26253;SDS011;53339;51.378;0.094;2022-12-22T16:36:48;21.35;;;4.45;;
26253;SDS011;53339;51.378;0.094;2022-12-22T16:39:16;23.98;;;4.72;;
26253;SDS011;53339;51.378;0.094;2022-12-22T16:41:43;24.75;;;4.05;;
26253;SDS011;53339;51.378;0.094;2022-12-22T16:44:11;26.08;;;4.38;;
26253;SDS011;53339;51.378;0.094;2022-12-22T16:46:46;14.65;;;5.47;;
26253;SDS011;53339;51.378;0.094;2022-12-22T16:49:15;30.23;;;5.68;;
26253;SDS011;53339;51.378;0.094;2022-12-22T16:51:50;27.55;;;4.93;;
26253;SDS011;53339;51.378;0.094;2022-12-22T16:54:19;30.77;;;5.72;;
26253;SDS011;53339;51.378;0.094;2022-12-22T16:56:46;30.52;;;4.72;;
26253;SDS011;53339;51.378;0.094;2022-12-22T16:59:17;25.50;;;3.95;;
26253;SDS011;53339;51.378;0.094;2022-12-22T17:01:48;24.67;;;5.43;;
26253;SDS011;53339;51.378;0.094;2022-12-22T17:04:19;20.45;;;4.40;;
26253;SDS011;53339;51.378;0.094;2022-12-22T17:06:50;25.77;;;4.05;;
26253;SDS011;53339;51.378;0.094;2022-12-22T17:09:21;27.15;;;4.60;;
26253;SDS011;53339;51.378;0.094;2022-12-22T17:11:53;18.42;;;4.15;;
26253;SDS011;53339;51.378;0.094;2022-12-22T17:14:31;15.90;;;3.92;;
26253;SDS011;53339;51.378;0.094;2022-12-22T17:17:02;21.35;;;4.65;;
26253;SDS011;53339;51.378;0.094;2022-12-22T17:19:30;19.23;;;5.50;;
26253;SDS011;53339;51.378;0.094;2022-12-22T17:21:57;21.13;;;4.25;;
26253;SDS011;53339;51.378;0.094;2022-12-22T17:24:26;22.00;;;3.42;;
26253;SDS011;53339;51.378;0.094;2022-12-22T17:26:59;21.02;;;4.68;;
26253;SDS011;53339;51.378;0.094;2022-12-22T17:29:31;22.95;;;4.85;;
26253;SDS011;53339;51.378;0.094;2022-12-22T17:32:00;15.63;;;4.15;;
26253;SDS011;53339;51.378;0.094;2022-12-22T17:34:28;14.82;;;2.90;;
26253;SDS011;53339;51.378;0.094;2022-12-22T17:36:56;20.15;;;4.93;;
26253;SDS011;53339;51.378;0.094;2022-12-22T17:39:25;19.83;;;4.93;;
26253;SDS011;53339;51.378;0.094;2022-12-22T17:41:53;15.88;;;4.10;;